createdAt,value
2019-05-20T00:00:57.951Z,982.82
2019-05-20T00:01:57.985Z,982.78
2019-05-20T00:02:58.029Z,982.81
2019-05-20T00:03:58.078Z,982.73
2019-05-20T00:04:58.113Z,982.78
2019-05-20T00:05:58.230Z,982.77
2019-05-20T00:06:58.200Z,982.79
2019-05-20T00:07:58.239Z,982.79
2019-05-20T00:08:58.279Z,982.82
2019-05-20T00:09:58.322Z,982.87
2019-05-20T00:10:58.367Z,982.91
2019-05-20T00:11:58.418Z,982.96
2019-05-20T00:12:58.448Z,982.98
2019-05-20T00:13:58.502Z,982.98
2019-05-20T00:14:58.535Z,982.94
2019-05-20T00:15:58.582Z,982.93
2019-05-20T00:16:58.632Z,982.94
2019-05-20T00:17:58.659Z,982.88
2019-05-20T00:18:58.703Z,982.91
2019-05-20T00:19:58.744Z,982.87
2019-05-20T00:20:58.787Z,982.84
2019-05-20T00:21:58.834Z,982.82
2019-05-20T00:22:58.873Z,982.86
2019-05-20T00:23:58.914Z,982.87
2019-05-20T00:24:58.954Z,982.85
2019-05-20T00:25:59.009Z,982.87
2019-05-20T00:26:59.042Z,982.91
2019-05-20T00:27:59.080Z,982.91
2019-05-20T00:28:59.124Z,982.97
2019-05-20T00:29:59.174Z,983.04
2019-05-20T00:30:59.208Z,983.01
2019-05-20T00:31:59.249Z,983.01
2019-05-20T00:32:59.291Z,983.01
2019-05-20T00:33:59.339Z,983.01
2019-05-20T00:34:59.385Z,982.97
2019-05-20T00:35:59.420Z,982.94
2019-05-20T00:36:59.462Z,982.92
2019-05-20T00:37:59.503Z,982.89
2019-05-20T00:38:59.546Z,982.85
2019-05-20T00:39:59.588Z,982.80
2019-05-20T00:40:59.638Z,982.78
2019-05-20T00:41:59.678Z,982.70
2019-05-20T00:42:59.716Z,982.69
2019-05-20T00:43:59.758Z,982.62
2019-05-20T00:44:59.800Z,982.57
2019-05-20T00:45:59.843Z,982.55
2019-05-20T00:46:59.886Z,982.51
2019-05-20T00:47:59.932Z,982.48
2019-05-20T00:48:59.975Z,982.48
2019-05-20T00:50:00.010Z,982.48
2019-05-20T00:51:00.056Z,982.47
2019-05-20T00:52:00.096Z,982.45
2019-05-20T00:53:00.141Z,982.47
2019-05-20T00:54:00.186Z,982.47
2019-05-20T00:55:00.220Z,982.46
2019-05-20T00:56:00.266Z,982.41
2019-05-20T00:57:00.340Z,982.35
2019-05-20T00:58:00.355Z,982.28
2019-05-20T00:59:00.391Z,982.30
2019-05-20T01:00:00.432Z,982.32
2019-05-20T01:01:00.473Z,982.35
2019-05-20T01:02:00.517Z,982.34
2019-05-20T01:03:00.564Z,982.39
2019-05-20T01:04:00.600Z,982.43
2019-05-20T01:05:00.647Z,982.38
2019-05-20T01:06:00.686Z,982.38
2019-05-20T01:07:00.743Z,982.37
2019-05-20T01:08:00.775Z,982.39
2019-05-20T01:09:00.963Z,982.37
2019-05-20T01:10:00.855Z,982.39
2019-05-20T01:11:00.897Z,982.39
2019-05-20T01:12:00.940Z,982.40
2019-05-20T01:13:00.985Z,982.40
2019-05-20T01:14:01.024Z,982.37
2019-05-20T01:15:01.066Z,982.37
2019-05-20T01:16:01.110Z,982.36
2019-05-20T01:17:01.503Z,982.31
2019-05-20T01:18:01.207Z,982.31
2019-05-20T01:19:01.238Z,982.28
2019-05-20T01:20:01.280Z,982.32
2019-05-20T01:21:01.319Z,982.33
2019-05-20T01:22:01.363Z,982.32
2019-05-20T01:23:01.403Z,982.28
2019-05-20T01:24:01.447Z,982.31
2019-05-20T01:25:01.490Z,982.29
2019-05-20T01:26:01.539Z,982.33
2019-05-20T01:27:01.574Z,982.29
2019-05-20T01:28:01.615Z,982.27
2019-05-20T01:29:01.670Z,982.30
2019-05-20T01:30:01.703Z,982.34
2019-05-20T01:31:01.747Z,982.30
2019-05-20T01:32:01.789Z,982.25
2019-05-20T01:33:13.245Z,982.27
2019-05-20T01:34:01.871Z,982.24
2019-05-20T01:35:02.035Z,982.20
2019-05-20T01:36:01.956Z,982.15
2019-05-20T01:37:01.998Z,982.18
2019-05-20T01:38:02.048Z,982.14
2019-05-20T01:39:02.092Z,982.15
2019-05-20T01:40:02.127Z,982.23
2019-05-20T01:41:02.169Z,982.18
2019-05-20T01:42:02.310Z,982.22
2019-05-20T01:43:02.252Z,982.20
2019-05-20T01:44:02.306Z,982.21
2019-05-20T01:45:02.339Z,982.19
2019-05-20T01:46:02.380Z,982.22
2019-05-20T01:47:02.422Z,982.22
2019-05-20T01:48:02.465Z,982.27
2019-05-20T01:49:02.629Z,982.28
2019-05-20T01:50:02.549Z,982.30
2019-05-20T01:51:02.591Z,982.27
2019-05-20T01:52:02.635Z,982.28
2019-05-20T01:53:02.673Z,982.23
2019-05-20T01:54:02.718Z,982.27
2019-05-20T01:55:02.776Z,982.28
2019-05-20T01:56:02.998Z,982.25
2019-05-20T01:57:02.844Z,982.29
2019-05-20T01:58:02.892Z,982.34
2019-05-20T01:59:02.955Z,982.33
2019-05-20T02:00:02.979Z,982.32
2019-05-20T02:01:03.017Z,982.33
2019-05-20T02:02:03.070Z,982.32
2019-05-20T02:03:03.203Z,982.31
2019-05-20T02:04:03.142Z,982.34
2019-05-20T02:05:03.194Z,982.35
2019-05-20T02:06:03.230Z,982.35
2019-05-20T02:07:03.279Z,982.36
2019-05-20T02:08:03.325Z,982.28
2019-05-20T02:09:03.359Z,982.30
2019-05-20T02:10:03.466Z,982.29
2019-05-20T02:11:03.440Z,982.30
2019-05-20T02:12:03.498Z,982.33
2019-05-20T02:13:03.533Z,982.31
2019-05-20T02:14:03.565Z,982.32
2019-05-20T02:15:03.608Z,982.32
2019-05-20T02:16:03.651Z,982.34
2019-05-20T02:17:03.695Z,982.32
2019-05-20T02:18:03.733Z,982.32
2019-05-20T02:19:03.796Z,982.31
2019-05-20T02:20:03.841Z,982.28
2019-05-20T02:21:03.861Z,982.28
2019-05-20T02:22:03.903Z,982.27
2019-05-20T02:23:03.953Z,982.28
2019-05-20T02:24:03.989Z,982.30
2019-05-20T02:25:04.029Z,982.28
2019-05-20T02:26:04.081Z,982.25
2019-05-20T02:27:04.112Z,982.25
2019-05-20T02:28:04.169Z,982.23
2019-05-20T02:29:04.217Z,982.25
2019-05-20T02:30:04.255Z,982.23
2019-05-20T02:31:04.300Z,982.23
2019-05-20T02:32:04.329Z,982.21
2019-05-20T02:33:04.374Z,982.26
2019-05-20T02:34:04.413Z,982.25
2019-05-20T02:35:04.454Z,982.25
2019-05-20T02:36:04.498Z,982.27
2019-05-20T02:37:04.541Z,982.22
2019-05-20T02:38:04.581Z,982.25
2019-05-20T02:39:04.624Z,982.28
2019-05-20T02:40:04.666Z,982.23
2019-05-20T02:41:04.716Z,982.29
2019-05-20T02:42:04.756Z,982.20
2019-05-20T02:43:04.794Z,982.25
2019-05-20T02:44:04.833Z,982.24
2019-05-20T02:45:04.878Z,982.23
2019-05-20T02:46:04.917Z,982.18
2019-05-20T02:47:04.963Z,982.19
2019-05-20T02:48:05.006Z,982.18
2019-05-20T02:49:05.043Z,982.18
2019-05-20T02:50:05.086Z,982.19
2019-05-20T02:51:05.129Z,982.19
2019-05-20T02:52:05.172Z,982.14
2019-05-20T02:53:05.211Z,982.12
2019-05-20T02:54:05.254Z,982.13
2019-05-20T02:55:05.296Z,982.14
2019-05-20T02:56:05.340Z,982.15
2019-05-20T02:57:05.389Z,982.17
2019-05-20T02:58:05.424Z,982.15
2019-05-20T02:59:05.494Z,982.17
2019-05-20T03:00:05.521Z,982.18
2019-05-20T03:01:05.578Z,982.20
2019-05-20T03:02:05.591Z,982.21
2019-05-20T03:03:05.633Z,982.23
2019-05-20T03:04:12.150Z,982.20
2019-05-20T03:05:05.716Z,982.20
2019-05-20T03:06:05.760Z,982.18
2019-05-20T03:07:05.802Z,982.22
2019-05-20T03:08:05.845Z,982.19
2019-05-20T03:09:05.890Z,982.21
2019-05-20T03:10:05.932Z,982.21
2019-05-20T03:11:05.975Z,982.18
2019-05-20T03:12:06.012Z,982.21
2019-05-20T03:13:06.052Z,982.24
2019-05-20T03:14:06.097Z,982.18
2019-05-20T03:15:06.137Z,982.16
2019-05-20T03:16:06.179Z,982.13
2019-05-20T03:17:06.289Z,982.17
2019-05-20T03:18:06.277Z,982.15
2019-05-20T03:19:06.305Z,982.15
2019-05-20T03:20:06.353Z,982.15
2019-05-20T03:21:06.396Z,982.13
2019-05-20T03:22:06.437Z,982.16
2019-05-20T03:23:06.477Z,982.14
2019-05-20T03:24:06.517Z,982.10
2019-05-20T03:25:06.557Z,982.06
2019-05-20T03:26:06.600Z,982.07
2019-05-20T03:27:06.647Z,982.03
2019-05-20T03:28:06.685Z,982.02
2019-05-20T03:29:06.724Z,982.03
2019-05-20T03:30:07.013Z,981.98
2019-05-20T03:31:06.816Z,982.04
2019-05-20T03:32:06.872Z,982.03
2019-05-20T03:33:06.897Z,982.03
2019-05-20T03:34:06.961Z,981.99
2019-05-20T03:35:06.979Z,982.01
2019-05-20T03:36:07.026Z,982.01
2019-05-20T03:37:07.062Z,982.00
2019-05-20T03:38:07.105Z,982.00
2019-05-20T03:39:07.159Z,981.99
2019-05-20T03:40:07.197Z,981.99
2019-05-20T03:41:07.233Z,982.01
2019-05-20T03:42:07.275Z,982.02
2019-05-20T03:43:07.320Z,982.04
2019-05-20T03:44:07.359Z,982.04
2019-05-20T03:45:07.397Z,982.01
2019-05-20T03:46:07.442Z,982.05
2019-05-20T03:47:07.489Z,982.04
2019-05-20T03:48:07.528Z,982.04
2019-05-20T03:49:07.565Z,982.08
2019-05-20T03:50:07.621Z,982.06
2019-05-20T03:51:07.653Z,982.10
2019-05-20T03:52:07.692Z,982.08
2019-05-20T03:53:07.733Z,982.09
2019-05-20T03:54:07.776Z,982.10
2019-05-20T03:55:07.827Z,982.05
2019-05-20T03:56:07.894Z,982.11
2019-05-20T03:57:07.905Z,982.10
2019-05-20T03:58:07.994Z,982.07
2019-05-20T03:59:07.985Z,982.07
2019-05-20T04:00:08.044Z,982.09
2019-05-20T04:01:08.070Z,982.04
2019-05-20T04:02:08.112Z,982.07
2019-05-20T04:03:08.153Z,982.02
2019-05-20T04:04:08.195Z,982.01
2019-05-20T04:05:08.236Z,982.06
2019-05-20T04:06:08.281Z,982.09
2019-05-20T04:07:08.326Z,982.04
2019-05-20T04:08:08.365Z,982.04
2019-05-20T04:09:08.404Z,982.05
2019-05-20T04:10:08.449Z,982.07
2019-05-20T04:11:08.488Z,982.08
2019-05-20T04:12:08.529Z,982.07
2019-05-20T04:13:08.572Z,982.09
2019-05-20T04:14:08.616Z,982.05
2019-05-20T04:15:08.659Z,982.07
2019-05-20T04:16:08.704Z,982.14
2019-05-20T04:17:08.749Z,982.04
2019-05-20T04:18:08.894Z,982.00
2019-05-20T04:19:08.823Z,982.03
2019-05-20T04:20:08.864Z,982.02
2019-05-20T04:21:08.908Z,982.03
2019-05-20T04:22:08.949Z,982.05
2019-05-20T04:23:09.023Z,982.06
2019-05-20T04:24:09.152Z,982.02
2019-05-20T04:25:09.076Z,982.02
2019-05-20T04:26:09.125Z,982.06
2019-05-20T04:27:09.173Z,982.09
2019-05-20T04:28:09.201Z,982.06
2019-05-20T04:29:09.247Z,982.10
2019-05-20T04:30:09.285Z,982.13
2019-05-20T04:31:09.507Z,982.12
2019-05-20T04:32:09.379Z,982.13
2019-05-20T04:33:09.419Z,982.15
2019-05-20T04:34:09.457Z,982.16
2019-05-20T04:35:21.300Z,982.18
2019-05-20T04:36:09.546Z,982.17
2019-05-20T04:37:09.581Z,982.15
2019-05-20T04:38:09.627Z,982.15
2019-05-20T04:39:09.665Z,982.15
2019-05-20T04:40:09.707Z,982.13
2019-05-20T04:41:09.751Z,982.11
2019-05-20T04:42:09.795Z,982.11
2019-05-20T04:43:09.841Z,982.09
2019-05-20T04:44:09.876Z,982.07
2019-05-20T04:45:09.920Z,982.10
2019-05-20T04:46:09.958Z,982.10
2019-05-20T04:47:10.003Z,982.06
2019-05-20T04:48:13.753Z,982.06
2019-05-20T04:49:10.086Z,982.09
2019-05-20T04:50:10.132Z,982.07
2019-05-20T04:51:10.172Z,982.10
2019-05-20T04:52:10.214Z,982.10
2019-05-20T04:53:10.262Z,982.12
2019-05-20T04:54:10.304Z,982.12
2019-05-20T04:55:10.338Z,982.17
2019-05-20T04:56:10.384Z,982.18
2019-05-20T04:57:10.482Z,982.19
2019-05-20T04:58:10.470Z,982.17
2019-05-20T04:59:10.510Z,982.22
2019-05-20T05:00:10.566Z,982.22
2019-05-20T05:01:10.605Z,982.19
2019-05-20T05:02:10.637Z,982.18
2019-05-20T05:03:10.687Z,982.17
2019-05-20T05:04:10.730Z,982.17
2019-05-20T05:05:10.770Z,982.18
2019-05-20T05:06:10.808Z,982.21
2019-05-20T05:07:10.852Z,982.23
2019-05-20T05:08:10.891Z,982.22
2019-05-20T05:09:10.945Z,982.25
2019-05-20T05:10:10.982Z,982.25
2019-05-20T05:11:11.030Z,982.23
2019-05-20T05:12:11.091Z,982.24
2019-05-20T05:13:11.108Z,982.25
2019-05-20T05:14:11.165Z,982.28
2019-05-20T05:15:11.197Z,982.29
2019-05-20T05:16:11.235Z,982.31
2019-05-20T05:17:11.277Z,982.31
2019-05-20T05:18:11.337Z,982.35
2019-05-20T05:19:11.368Z,982.35
2019-05-20T05:20:18.221Z,982.36
2019-05-20T05:21:11.454Z,982.39
2019-05-20T05:22:11.497Z,982.37
2019-05-20T05:23:11.600Z,982.40
2019-05-20T05:24:11.614Z,982.40
2019-05-20T05:25:11.623Z,982.39
2019-05-20T05:26:11.670Z,982.38
2019-05-20T05:27:11.714Z,982.30
2019-05-20T05:28:11.759Z,982.35
2019-05-20T05:29:11.807Z,982.31
2019-05-20T05:30:11.884Z,982.35
2019-05-20T05:31:11.885Z,982.34
2019-05-20T05:32:11.947Z,982.36
2019-05-20T05:33:12.050Z,982.32
2019-05-20T05:34:12.015Z,982.32
2019-05-20T05:35:12.071Z,982.37
2019-05-20T05:36:12.107Z,982.36
2019-05-20T05:37:12.185Z,982.34
2019-05-20T05:38:12.227Z,982.36
2019-05-20T05:39:12.236Z,982.36
2019-05-20T05:40:12.282Z,982.38
2019-05-20T05:41:12.324Z,982.38
2019-05-20T05:42:12.369Z,982.39
2019-05-20T05:43:12.414Z,982.37
2019-05-20T05:44:12.481Z,982.36
2019-05-20T05:45:12.503Z,982.36
2019-05-20T05:46:12.546Z,982.38
2019-05-20T05:47:12.592Z,982.39
2019-05-20T05:48:12.643Z,982.39
2019-05-20T05:49:12.681Z,982.43
2019-05-20T05:50:12.724Z,982.40
2019-05-20T05:51:12.898Z,982.40
2019-05-20T05:52:12.820Z,982.44
2019-05-20T05:53:12.865Z,982.45
2019-05-20T05:54:12.935Z,982.43
2019-05-20T05:55:12.949Z,982.44
2019-05-20T05:56:12.997Z,982.40
2019-05-20T05:57:13.039Z,982.41
2019-05-20T05:58:13.083Z,982.44
2019-05-20T05:59:13.131Z,982.45
2019-05-20T06:00:13.173Z,982.39
2019-05-20T06:01:13.220Z,982.35
2019-05-20T06:02:13.265Z,982.39
2019-05-20T06:03:13.335Z,982.38
2019-05-20T06:04:13.353Z,982.39
2019-05-20T06:05:13.395Z,982.40
2019-05-20T06:06:13.688Z,982.44
2019-05-20T06:07:13.486Z,982.44
2019-05-20T06:08:13.547Z,982.43
2019-05-20T06:09:13.593Z,982.43
2019-05-20T06:10:13.674Z,982.41
2019-05-20T06:11:13.669Z,982.40
2019-05-20T06:12:13.716Z,982.45
2019-05-20T06:13:13.763Z,982.46
2019-05-20T06:14:13.809Z,982.40
2019-05-20T06:15:13.853Z,982.43
2019-05-20T06:16:13.898Z,982.43
2019-05-20T06:17:13.943Z,982.42
2019-05-20T06:18:13.986Z,982.38
2019-05-20T06:19:14.032Z,982.40
2019-05-20T06:20:14.076Z,982.39
2019-05-20T06:21:14.124Z,982.41
2019-05-20T06:22:14.691Z,982.41
2019-05-20T06:23:14.228Z,982.40
2019-05-20T06:24:14.266Z,982.38
2019-05-20T06:25:14.312Z,982.40
2019-05-20T06:26:14.352Z,982.32
2019-05-20T06:27:14.398Z,982.29
2019-05-20T06:28:14.441Z,982.30
2019-05-20T06:29:14.488Z,982.28
2019-05-20T06:30:14.532Z,982.29
2019-05-20T06:31:14.576Z,982.29
2019-05-20T06:32:14.865Z,982.31
2019-05-20T06:33:14.666Z,982.31
2019-05-20T06:34:14.749Z,982.28
2019-05-20T06:35:14.856Z,982.31
2019-05-20T06:36:26.509Z,982.34
2019-05-20T06:37:14.846Z,982.37
2019-05-20T06:38:14.902Z,982.42
2019-05-20T06:39:14.935Z,982.39
2019-05-20T06:40:14.981Z,982.41
2019-05-20T06:41:15.043Z,982.41
2019-05-20T06:42:15.070Z,982.42
2019-05-20T06:43:15.116Z,982.36
2019-05-20T06:44:15.162Z,982.38
2019-05-20T06:45:15.205Z,982.40
2019-05-20T06:46:15.250Z,982.42
2019-05-20T06:47:15.309Z,982.42
2019-05-20T06:48:15.351Z,982.41
2019-05-20T06:49:15.396Z,982.38
2019-05-20T06:50:15.433Z,982.43
2019-05-20T06:51:15.477Z,982.45
2019-05-20T06:52:15.520Z,982.43
2019-05-20T06:53:15.578Z,982.46
2019-05-20T06:54:15.611Z,982.47
2019-05-20T06:55:15.665Z,982.49
2019-05-20T06:56:15.699Z,982.49
2019-05-20T06:57:15.822Z,982.49
2019-05-20T06:58:15.835Z,982.45
2019-05-20T06:59:15.833Z,982.45
2019-05-20T07:00:15.887Z,982.41
2019-05-20T07:01:16.077Z,982.44
2019-05-20T07:02:15.969Z,982.39
2019-05-20T07:03:16.018Z,982.41
2019-05-20T07:04:16.079Z,982.41
2019-05-20T07:05:16.105Z,982.37
2019-05-20T07:06:16.149Z,982.37
2019-05-20T07:07:20.747Z,982.41
2019-05-20T07:08:16.369Z,982.45
2019-05-20T07:09:16.306Z,982.49
2019-05-20T07:10:16.326Z,982.48
2019-05-20T07:11:16.423Z,982.53
2019-05-20T07:12:16.432Z,982.55
2019-05-20T07:13:16.547Z,982.57
2019-05-20T07:14:16.509Z,982.53
2019-05-20T07:15:16.558Z,982.55
2019-05-20T07:16:16.614Z,982.56
2019-05-20T07:17:16.643Z,982.58
2019-05-20T07:18:16.688Z,982.60
2019-05-20T07:19:16.744Z,982.60
2019-05-20T07:20:16.800Z,982.54
2019-05-20T07:21:16.822Z,982.48
2019-05-20T07:22:16.897Z,982.47
2019-05-20T07:23:16.918Z,982.44
2019-05-20T07:24:16.967Z,982.43
2019-05-20T07:25:17.017Z,982.41
2019-05-20T07:26:17.053Z,982.37
2019-05-20T07:27:17.098Z,982.37
2019-05-20T07:28:17.141Z,982.36
2019-05-20T07:29:17.189Z,982.35
2019-05-20T07:30:17.230Z,982.36
2019-05-20T07:31:17.279Z,982.33
2019-05-20T07:32:17.326Z,982.34
2019-05-20T07:33:17.372Z,982.33
2019-05-20T07:34:17.935Z,982.33
2019-05-20T07:35:29.466Z,982.30
2019-05-20T07:36:17.518Z,982.29
2019-05-20T07:37:17.579Z,982.27
2019-05-20T07:38:17.600Z,982.24
2019-05-20T07:39:17.662Z,982.21
2019-05-20T07:40:17.693Z,982.22
2019-05-20T07:41:17.799Z,982.28
2019-05-20T07:42:17.781Z,982.20
2019-05-20T07:43:17.826Z,982.20
2019-05-20T07:44:17.868Z,982.26
2019-05-20T07:45:17.922Z,982.24
2019-05-20T07:46:17.964Z,982.24
2019-05-20T07:47:18.013Z,982.22
2019-05-20T07:48:18.159Z,982.24
2019-05-20T07:49:18.104Z,982.24
2019-05-20T07:50:18.140Z,982.22
2019-05-20T07:51:18.208Z,982.24
2019-05-20T07:52:18.240Z,982.23
2019-05-20T07:53:18.278Z,982.24
2019-05-20T07:54:18.328Z,982.22
2019-05-20T07:55:18.372Z,982.21
2019-05-20T07:56:18.417Z,982.18
2019-05-20T07:57:18.465Z,982.20
2019-05-20T07:58:18.507Z,982.20
2019-05-20T07:59:18.553Z,982.21
2019-05-20T08:00:18.610Z,982.21
2019-05-20T08:01:18.646Z,982.20
2019-05-20T08:02:18.698Z,982.19
2019-05-20T08:03:18.734Z,982.23
2019-05-20T08:04:18.831Z,982.22
2019-05-20T08:05:18.822Z,982.18
2019-05-20T08:06:18.902Z,982.20
2019-05-20T08:07:27.887Z,982.16
2019-05-20T08:08:18.967Z,982.11
2019-05-20T08:09:19.095Z,982.05
2019-05-20T08:10:19.055Z,982.12
2019-05-20T08:11:19.095Z,982.10
2019-05-20T08:12:19.144Z,982.14
2019-05-20T08:13:19.190Z,982.10
2019-05-20T08:14:19.234Z,982.12
2019-05-20T08:15:19.279Z,982.08
2019-05-20T08:16:19.331Z,982.10
2019-05-20T08:17:19.380Z,982.14
2019-05-20T08:18:20.286Z,982.12
2019-05-20T08:19:19.466Z,982.17
2019-05-20T08:20:19.505Z,982.17
2019-05-20T08:21:19.552Z,982.15
2019-05-20T08:22:19.595Z,982.22
2019-05-20T08:23:19.648Z,982.18
2019-05-20T08:24:19.690Z,982.16
2019-05-20T08:25:19.882Z,982.17
2019-05-20T08:26:19.779Z,982.15
2019-05-20T08:27:19.826Z,982.19
2019-05-20T08:28:19.870Z,982.12
2019-05-20T08:29:19.921Z,982.16
2019-05-20T08:30:19.968Z,982.15
2019-05-20T08:31:20.008Z,982.15
2019-05-20T08:32:20.054Z,982.12
2019-05-20T08:33:20.102Z,982.13
2019-05-20T08:34:20.153Z,982.15
2019-05-20T08:35:23.655Z,982.16
2019-05-20T08:36:20.237Z,982.12
2019-05-20T08:37:20.302Z,982.12
2019-05-20T08:38:20.331Z,982.12
2019-05-20T08:39:20.374Z,982.10
2019-05-20T08:40:20.426Z,982.15
2019-05-20T08:41:20.494Z,982.15
2019-05-20T08:42:20.515Z,982.15
2019-05-20T08:43:20.558Z,982.16
2019-05-20T08:44:20.612Z,982.12
2019-05-20T08:45:20.690Z,982.10
2019-05-20T08:46:20.698Z,982.15
2019-05-20T08:47:20.771Z,982.14
2019-05-20T08:48:20.793Z,982.16
2019-05-20T08:49:20.834Z,982.12
2019-05-20T08:50:20.884Z,982.14
2019-05-20T08:51:20.929Z,982.09
2019-05-20T08:52:20.976Z,982.10
2019-05-20T08:53:21.130Z,982.08
2019-05-20T08:54:21.073Z,982.15
2019-05-20T08:55:21.113Z,982.10
2019-05-20T08:56:21.165Z,982.12
2019-05-20T08:57:21.210Z,982.15
2019-05-20T08:58:21.251Z,982.15
2019-05-20T08:59:21.303Z,982.19
2019-05-20T09:00:23.604Z,982.18
2019-05-20T09:01:21.390Z,982.23
2019-05-20T09:02:21.434Z,982.15
2019-05-20T09:03:21.505Z,982.19
2019-05-20T09:04:21.528Z,982.17
2019-05-20T09:05:21.625Z,982.17
2019-05-20T09:06:21.622Z,982.21
2019-05-20T09:07:21.667Z,982.25
2019-05-20T09:08:21.724Z,982.24
2019-05-20T09:09:21.815Z,982.24
2019-05-20T09:10:21.804Z,982.22
2019-05-20T09:11:21.907Z,982.24
2019-05-20T09:12:21.902Z,982.25
2019-05-20T09:13:21.949Z,982.16
2019-05-20T09:14:22.007Z,982.13
2019-05-20T09:15:22.036Z,982.15
2019-05-20T09:16:22.083Z,982.16
2019-05-20T09:17:22.145Z,982.14
2019-05-20T09:18:22.398Z,982.12
2019-05-20T09:19:22.227Z,982.18
2019-05-20T09:20:22.312Z,982.17
2019-05-20T09:21:22.316Z,982.15
2019-05-20T09:22:22.371Z,982.16
2019-05-20T09:23:22.417Z,982.19
2019-05-20T09:24:22.454Z,982.25
2019-05-20T09:25:22.504Z,982.21
2019-05-20T09:26:22.549Z,982.21
2019-05-20T09:27:22.597Z,982.18
2019-05-20T09:28:22.646Z,982.21
2019-05-20T09:29:22.695Z,982.11
2019-05-20T09:30:22.954Z,982.11
2019-05-20T09:31:22.782Z,982.09
2019-05-20T09:32:22.830Z,982.07
2019-05-20T09:33:22.879Z,982.06
2019-05-20T09:34:22.932Z,982.05
2019-05-20T09:35:22.978Z,982.08
2019-05-20T09:36:25.839Z,982.05
2019-05-20T09:37:23.072Z,982.13
2019-05-20T09:38:23.109Z,982.11
2019-05-20T09:39:23.164Z,982.17
2019-05-20T09:40:23.430Z,982.16
2019-05-20T09:41:23.255Z,982.13
2019-05-20T09:42:23.298Z,982.17
2019-05-20T09:43:23.346Z,982.13
2019-05-20T09:44:23.412Z,982.17
2019-05-20T09:45:23.442Z,982.21
2019-05-20T09:46:23.485Z,982.25
2019-05-20T09:47:23.560Z,982.24
2019-05-20T09:48:25.260Z,982.25
2019-05-20T09:49:23.727Z,982.26
2019-05-20T09:50:23.674Z,982.17
2019-05-20T09:51:23.742Z,982.18
2019-05-20T09:52:23.821Z,982.17
2019-05-20T09:53:23.816Z,982.13
2019-05-20T09:54:23.882Z,982.03
2019-05-20T09:55:23.929Z,982.04
2019-05-20T09:56:23.961Z,982.14
2019-05-20T09:57:24.015Z,982.22
2019-05-20T09:58:24.068Z,982.30
2019-05-20T09:59:24.102Z,982.18
2019-05-20T10:00:24.157Z,982.27
2019-05-20T10:01:24.193Z,982.21
2019-05-20T10:02:33.965Z,982.20
2019-05-20T10:03:24.295Z,982.15
2019-05-20T10:04:24.338Z,982.08
2019-05-20T10:05:24.409Z,982.08
2019-05-20T10:06:24.441Z,982.08
2019-05-20T10:07:24.483Z,982.09
2019-05-20T10:08:37.463Z,982.10
2019-05-20T10:09:24.584Z,982.10
2019-05-20T10:10:24.628Z,982.15
2019-05-20T10:11:24.676Z,982.11
2019-05-20T10:12:44.247Z,982.08
2019-05-20T10:13:24.773Z,982.18
2019-05-20T10:14:24.895Z,982.13
2019-05-20T10:15:24.869Z,982.21
2019-05-20T10:16:24.912Z,982.20
2019-05-20T10:17:24.968Z,982.27
2019-05-20T10:18:36.775Z,982.20
2019-05-20T10:19:25.055Z,982.14
2019-05-20T10:20:25.103Z,982.21
2019-05-20T10:21:25.151Z,982.16
2019-05-20T10:22:25.200Z,982.11
2019-05-20T10:23:25.254Z,982.14
2019-05-20T10:24:25.295Z,982.17
2019-05-20T10:25:25.348Z,982.16
2019-05-20T10:26:25.401Z,982.17
2019-05-20T10:27:25.436Z,982.18
2019-05-20T10:28:25.491Z,982.15
2019-05-20T10:29:25.534Z,982.22
2019-05-20T10:30:25.580Z,982.11
2019-05-20T10:31:25.630Z,982.18
2019-05-20T10:32:25.695Z,982.22
2019-05-20T10:33:25.740Z,982.26
2019-05-20T10:34:25.773Z,982.22
2019-05-20T10:35:25.826Z,982.25
2019-05-20T10:36:25.869Z,982.25
2019-05-20T10:37:25.925Z,982.23
2019-05-20T10:38:25.966Z,982.20
2019-05-20T10:39:26.014Z,982.24
2019-05-20T10:40:26.063Z,982.24
2019-05-20T10:41:29.345Z,982.28
2019-05-20T10:42:26.155Z,982.32
2019-05-20T10:43:26.204Z,982.29
2019-05-20T10:44:26.264Z,982.35
2019-05-20T10:45:26.304Z,982.31
2019-05-20T10:46:26.359Z,982.35
2019-05-20T10:47:26.397Z,982.35
2019-05-20T10:48:26.446Z,982.33
2019-05-20T10:49:26.495Z,982.37
2019-05-20T10:50:26.540Z,982.31
2019-05-20T10:51:26.587Z,982.34
2019-05-20T10:52:26.639Z,982.30
2019-05-20T10:53:28.448Z,982.25
2019-05-20T10:54:26.740Z,982.32
2019-05-20T10:55:26.793Z,982.22
2019-05-20T10:56:26.828Z,982.24
2019-05-20T10:57:26.877Z,982.32
2019-05-20T10:58:26.934Z,982.29
2019-05-20T10:59:27.025Z,982.24
2019-05-20T11:00:27.024Z,982.24
2019-05-20T11:01:27.220Z,982.21
2019-05-20T11:02:31.097Z,982.21
2019-05-20T11:03:27.167Z,982.18
2019-05-20T11:04:27.217Z,982.17
2019-05-20T11:05:27.271Z,982.20
2019-05-20T11:06:27.314Z,982.26
2019-05-20T11:07:27.365Z,982.24
2019-05-20T11:08:27.410Z,982.26
2019-05-20T11:09:27.460Z,982.24
2019-05-20T11:10:27.505Z,982.16
2019-05-20T11:11:27.559Z,982.10
2019-05-20T11:12:27.620Z,982.11
2019-05-20T11:13:27.651Z,982.07
2019-05-20T11:14:27.703Z,982.08
2019-05-20T11:15:27.752Z,982.06
2019-05-20T11:16:27.796Z,982.05
2019-05-20T11:17:27.843Z,981.99
2019-05-20T11:18:27.892Z,981.95
2019-05-20T11:19:27.950Z,981.93
2019-05-20T11:20:27.992Z,981.89
2019-05-20T11:21:28.036Z,981.90
2019-05-20T11:22:28.084Z,981.85
2019-05-20T11:23:28.136Z,981.86
2019-05-20T11:24:28.181Z,981.76
2019-05-20T11:25:28.230Z,981.76
2019-05-20T11:26:28.282Z,981.78
2019-05-20T11:27:28.345Z,981.78
2019-05-20T11:28:28.380Z,981.83
2019-05-20T11:29:28.420Z,981.80
2019-05-20T11:30:28.467Z,981.81
2019-05-20T11:31:28.566Z,981.82
2019-05-20T11:32:28.565Z,981.80
2019-05-20T11:33:28.608Z,981.78
2019-05-20T11:34:28.654Z,981.79
2019-05-20T11:35:28.710Z,981.78
2019-05-20T11:36:28.751Z,981.75
2019-05-20T11:37:28.805Z,981.74
2019-05-20T11:38:28.895Z,981.78
2019-05-20T11:39:33.255Z,981.79
2019-05-20T11:40:28.935Z,981.78
2019-05-20T11:41:52.072Z,981.76
2019-05-20T11:42:29.035Z,981.78
2019-05-20T11:43:29.077Z,981.76
2019-05-20T11:44:29.128Z,981.72
2019-05-20T11:45:29.264Z,981.69
2019-05-20T11:46:29.211Z,981.66
2019-05-20T11:47:29.254Z,981.64
2019-05-20T11:48:29.306Z,981.63
2019-05-20T11:49:29.533Z,981.61
2019-05-20T11:50:29.397Z,981.55
2019-05-20T11:51:29.439Z,981.58
2019-05-20T11:52:29.487Z,981.54
2019-05-20T11:53:29.529Z,981.59
2019-05-20T11:54:29.583Z,981.59
2019-05-20T11:55:29.623Z,981.65
2019-05-20T11:56:29.671Z,981.60
2019-05-20T11:57:29.734Z,981.61
2019-05-20T11:58:29.754Z,981.62
2019-05-20T11:59:29.810Z,981.65
2019-05-20T12:00:29.849Z,981.63
2019-05-20T12:01:29.896Z,981.61
2019-05-20T12:02:29.941Z,981.60
2019-05-20T12:03:29.983Z,981.63
2019-05-20T12:04:30.032Z,981.63
2019-05-20T12:05:30.077Z,981.67
2019-05-20T12:06:30.121Z,981.71
2019-05-20T12:07:30.163Z,981.69
2019-05-20T12:08:30.310Z,981.71
2019-05-20T12:09:30.265Z,981.65
2019-05-20T12:10:30.306Z,981.61
2019-05-20T12:11:30.362Z,981.59
2019-05-20T12:12:30.395Z,981.58
2019-05-20T12:13:30.439Z,981.56
2019-05-20T12:14:30.488Z,981.55
2019-05-20T12:15:30.656Z,981.58
2019-05-20T12:16:30.579Z,981.57
2019-05-20T12:17:30.628Z,981.60
2019-05-20T12:18:30.668Z,981.54
2019-05-20T12:19:30.753Z,981.50
2019-05-20T12:20:30.762Z,981.51
2019-05-20T12:21:30.801Z,981.53
2019-05-20T12:22:30.858Z,981.54
2019-05-20T12:23:30.901Z,981.53
2019-05-20T12:24:30.940Z,981.53
2019-05-20T12:25:30.986Z,981.56
2019-05-20T12:26:31.043Z,981.47
2019-05-20T12:27:31.081Z,981.59
2019-05-20T12:28:31.141Z,981.55
2019-05-20T12:29:31.169Z,981.58